sensor_id;sensor_type;location;lat;lon;timestamp;temperature;humidity
46784;DHT22;32544;52.832;13.816;2023-04-06T00:00:50;23.10;41.70
46784;DHT22;32544;52.832;13.816;2023-04-06T00:01:50;23.10;41.70
46784;DHT22;32544;52.832;13.816;2023-04-06T00:02:51;23.10;41.70
46784;DHT22;32544;52.832;13.816;2023-04-06T00:03:52;23.10;41.70
46784;DHT22;32544;52.832;13.816;2023-04-06T00:04:53;23.10;41.70
46784;DHT22;32544;52.832;13.816;2023-04-06T00:05:53;23.10;41.70
46784;DHT22;32544;52.832;13.816;2023-04-06T00:06:54;23.10;41.70
46784;DHT22;32544;52.832;13.816;2023-04-06T00:07:54;23.10;41.70
46784;DHT22;32544;52.832;13.816;2023-04-06T00:08:56;23.10;41.70
46784;DHT22;32544;52.832;13.816;2023-04-06T00:09:56;23.10;41.70
46784;DHT22;32544;52.832;13.816;2023-04-06T00:10:57;23.10;41.70
46784;DHT22;32544;52.832;13.816;2023-04-06T00:11:58;23.00;41.60
46784;DHT22;32544;52.832;13.816;2023-04-06T00:12:58;23.10;41.70
46784;DHT22;32544;52.832;13.816;2023-04-06T00:13:59;23.00;41.60
46784;DHT22;32544;52.832;13.816;2023-04-06T00:15:00;23.10;41.70
46784;DHT22;32544;52.832;13.816;2023-04-06T00:16:01;23.10;41.70
46784;DHT22;32544;52.832;13.816;2023-04-06T00:17:02;23.10;41.70
46784;DHT22;32544;52.832;13.816;2023-04-06T00:18:03;23.00;41.60
46784;DHT22;32544;52.832;13.816;2023-04-06T00:19:04;23.00;41.50
46784;DHT22;32544;52.832;13.816;2023-04-06T00:20:04;23.00;41.60
46784;DHT22;32544;52.832;13.816;2023-04-06T00:21:05;23.00;41.60
46784;DHT22;32544;52.832;13.816;2023-04-06T00:22:06;23.10;41.70
46784;DHT22;32544;52.832;13.816;2023-04-06T00:23:07;23.10;41.70
46784;DHT22;32544;52.832;13.816;2023-04-06T00:24:07;23.10;41.70
46784;DHT22;32544;52.832;13.816;2023-04-06T00:25:08;23.10;41.70
46784;DHT22;32544;52.832;13.816;2023-04-06T00:26:10;23.10;41.60
46784;DHT22;32544;52.832;13.816;2023-04-06T00:27:11;23.10;41.60
46784;DHT22;32544;52.832;13.816;2023-04-06T00:28:12;23.10;41.60
46784;DHT22;32544;52.832;13.816;2023-04-06T00:29:12;23.10;41.70
46784;DHT22;32544;52.832;13.816;2023-04-06T00:30:13;23.10;41.60
46784;DHT22;32544;52.832;13.816;2023-04-06T00:31:14;23.10;41.60
46784;DHT22;32544;52.832;13.816;2023-04-06T00:32:15;23.10;41.60
46784;DHT22;32544;52.832;13.816;2023-04-06T00:33:16;23.10;41.60
46784;DHT22;32544;52.832;13.816;2023-04-06T00:34:17;23.10;41.60
46784;DHT22;32544;52.832;13.816;2023-04-06T00:35:17;23.10;42.20
46784;DHT22;32544;52.832;13.816;2023-04-06T00:36:18;23.10;41.60
46784;DHT22;32544;52.832;13.816;2023-04-06T00:37:18;23.10;41.10
46784;DHT22;32544;52.832;13.816;2023-04-06T00:38:19;23.10;41.60
46784;DHT22;32544;52.832;13.816;2023-04-06T00:39:21;23.10;41.60
46784;DHT22;32544;52.832;13.816;2023-04-06T00:40:21;23.10;41.60
46784;DHT22;32544;52.832;13.816;2023-04-06T00:41:22;23.10;41.60
46784;DHT22;32544;52.832;13.816;2023-04-06T00:42:23;23.10;41.50
46784;DHT22;32544;52.832;13.816;2023-04-06T00:43:27;23.10;42.30
46784;DHT22;32544;52.832;13.816;2023-04-06T00:44:27;23.00;41.50
46784;DHT22;32544;52.832;13.816;2023-04-06T00:45:28;23.10;41.60
46784;DHT22;32544;52.832;13.816;2023-04-06T00:46:29;23.10;41.60
46784;DHT22;32544;52.832;13.816;2023-04-06T00:47:29;23.00;41.50
46784;DHT22;32544;52.832;13.816;2023-04-06T00:48:30;23.00;41.50
46784;DHT22;32544;52.832;13.816;2023-04-06T00:49:32;23.10;41.60
46784;DHT22;32544;52.832;13.816;2023-04-06T00:50:32;23.10;41.60
46784;DHT22;32544;52.832;13.816;2023-04-06T00:51:33;23.10;41.50
46784;DHT22;32544;52.832;13.816;2023-04-06T00:52:34;23.10;41.60
46784;DHT22;32544;52.832;13.816;2023-04-06T00:53:36;23.10;41.60
46784;DHT22;32544;52.832;13.816;2023-04-06T00:54:36;23.10;41.60
46784;DHT22;32544;52.832;13.816;2023-04-06T00:55:38;23.10;41.60
46784;DHT22;32544;52.832;13.816;2023-04-06T00:56:39;23.00;41.50
46784;DHT22;32544;52.832;13.816;2023-04-06T00:57:41;23.10;41.60
46784;DHT22;32544;52.832;13.816;2023-04-06T00:58:43;23.10;41.60
46784;DHT22;32544;52.832;13.816;2023-04-06T00:59:43;23.00;41.50
46784;DHT22;32544;52.832;13.816;2023-04-06T01:00:46;23.10;41.60
46784;DHT22;32544;52.832;13.816;2023-04-06T01:01:51;23.00;41.50
46784;DHT22;32544;52.832;13.816;2023-04-06T01:03:09;23.10;41.60
46784;DHT22;32544;52.832;13.816;2023-04-06T01:04:14;23.00;41.50
46784;DHT22;32544;52.832;13.816;2023-04-06T01:05:16;23.00;41.40
46784;DHT22;32544;52.832;13.816;2023-04-06T01:06:26;23.00;41.50
46784;DHT22;32544;52.832;13.816;2023-04-06T01:07:32;23.00;41.50
46784;DHT22;32544;52.832;13.816;2023-04-06T01:08:40;23.00;41.50
46784;DHT22;32544;52.832;13.816;2023-04-06T01:09:56;23.00;41.50
46784;DHT22;32544;52.832;13.816;2023-04-06T01:11:00;23.00;41.50
46784;DHT22;32544;52.832;13.816;2023-04-06T01:12:03;23.00;41.50
46784;DHT22;32544;52.832;13.816;2023-04-06T01:13:05;23.00;41.50
46784;DHT22;32544;52.832;13.816;2023-04-06T01:14:33;23.00;41.50
46784;DHT22;32544;52.832;13.816;2023-04-06T01:15:35;23.00;41.60
46784;DHT22;32544;52.832;13.816;2023-04-06T01:16:40;23.00;41.50
46784;DHT22;32544;52.832;13.816;2023-04-06T01:17:46;23.00;41.50
46784;DHT22;32544;52.832;13.816;2023-04-06T01:18:50;23.00;41.50
46784;DHT22;32544;52.832;13.816;2023-04-06T01:19:54;23.00;41.50
46784;DHT22;32544;52.832;13.816;2023-04-06T01:21:01;23.00;41.50
46784;DHT22;32544;52.832;13.816;2023-04-06T01:22:02;23.00;41.50
46784;DHT22;32544;52.832;13.816;2023-04-06T01:23:06;23.00;41.50
46784;DHT22;32544;52.832;13.816;2023-04-06T01:24:07;23.00;41.50
46784;DHT22;32544;52.832;13.816;2023-04-06T01:25:21;23.00;41.50
46784;DHT22;32544;52.832;13.816;2023-04-06T01:26:36;23.00;41.50
46784;DHT22;32544;52.832;13.816;2023-04-06T01:27:40;23.00;41.50
46784;DHT22;32544;52.832;13.816;2023-04-06T01:29:00;23.00;41.50
46784;DHT22;32544;52.832;13.816;2023-04-06T01:30:03;23.00;41.50
46784;DHT22;32544;52.832;13.816;2023-04-06T01:31:26;23.00;41.60
46784;DHT22;32544;52.832;13.816;2023-04-06T01:32:27;23.00;41.50
46784;DHT22;32544;52.832;13.816;2023-04-06T01:33:27;23.00;41.60
46784;DHT22;32544;52.832;13.816;2023-04-06T01:34:37;23.00;41.50
46784;DHT22;32544;52.832;13.816;2023-04-06T01:35:39;23.00;41.60
46784;DHT22;32544;52.832;13.816;2023-04-06T01:36:52;23.00;41.50
46784;DHT22;32544;52.832;13.816;2023-04-06T01:37:59;23.00;41.60
46784;DHT22;32544;52.832;13.816;2023-04-06T01:39:04;23.00;41.50
46784;DHT22;32544;52.832;13.816;2023-04-06T01:40:09;23.00;41.50
46784;DHT22;32544;52.832;13.816;2023-04-06T01:41:18;23.00;41.50
46784;DHT22;32544;52.832;13.816;2023-04-06T01:42:25;23.00;41.50
46784;DHT22;32544;52.832;13.816;2023-04-06T01:43:26;23.00;41.50
46784;DHT22;32544;52.832;13.816;2023-04-06T01:44:36;23.00;41.30
46784;DHT22;32544;52.832;13.816;2023-04-06T01:45:48;23.00;41.40
46784;DHT22;32544;52.832;13.816;2023-04-06T01:46:53;23.00;41.40
46784;DHT22;32544;52.832;13.816;2023-04-06T01:47:54;23.00;41.20
46784;DHT22;32544;52.832;13.816;2023-04-06T01:48:58;23.00;41.40
46784;DHT22;32544;52.832;13.816;2023-04-06T01:50:24;23.00;41.30
46784;DHT22;32544;52.832;13.816;2023-04-06T01:51:25;23.00;41.20
46784;DHT22;32544;52.832;13.816;2023-04-06T01:52:32;23.00;41.30
46784;DHT22;32544;52.832;13.816;2023-04-06T01:53:33;23.00;41.30
46784;DHT22;32544;52.832;13.816;2023-04-06T01:54:38;23.00;41.30
46784;DHT22;32544;52.832;13.816;2023-04-06T01:55:44;23.00;41.40
46784;DHT22;32544;52.832;13.816;2023-04-06T01:57:05;23.00;41.20
46784;DHT22;32544;52.832;13.816;2023-04-06T01:58:15;23.00;41.30
46784;DHT22;32544;52.832;13.816;2023-04-06T01:59:16;23.00;41.30
46784;DHT22;32544;52.832;13.816;2023-04-06T02:00:17;23.00;41.30
46784;DHT22;32544;52.832;13.816;2023-04-06T02:01:24;23.00;41.30
46784;DHT22;32544;52.832;13.816;2023-04-06T02:02:29;23.00;41.30
46784;DHT22;32544;52.832;13.816;2023-04-06T02:03:36;23.00;41.40
46784;DHT22;32544;52.832;13.816;2023-04-06T02:04:41;23.00;41.30
46784;DHT22;32544;52.832;13.816;2023-04-06T02:05:45;23.00;41.30
46784;DHT22;32544;52.832;13.816;2023-04-06T02:06:56;23.00;41.30
46784;DHT22;32544;52.832;13.816;2023-04-06T02:07:59;23.00;41.30
46784;DHT22;32544;52.832;13.816;2023-04-06T02:09:06;23.00;41.30
46784;DHT22;32544;52.832;13.816;2023-04-06T02:10:11;23.00;41.30
46784;DHT22;32544;52.832;13.816;2023-04-06T02:11:12;23.00;41.40
46784;DHT22;32544;52.832;13.816;2023-04-06T02:12:18;23.00;41.40
46784;DHT22;32544;52.832;13.816;2023-04-06T02:13:18;23.00;41.30
46784;DHT22;32544;52.832;13.816;2023-04-06T02:14:24;23.00;41.40
46784;DHT22;32544;52.832;13.816;2023-04-06T02:15:27;23.00;41.30
46784;DHT22;32544;52.832;13.816;2023-04-06T02:16:28;23.00;41.30
46784;DHT22;32544;52.832;13.816;2023-04-06T02:17:28;23.00;41.30
46784;DHT22;32544;52.832;13.816;2023-04-06T02:18:30;23.00;41.30
46784;DHT22;32544;52.832;13.816;2023-04-06T02:19:31;23.00;41.30
46784;DHT22;32544;52.832;13.816;2023-04-06T02:20:31;23.00;41.40
46784;DHT22;32544;52.832;13.816;2023-04-06T02:21:32;23.00;41.40
46784;DHT22;32544;52.832;13.816;2023-04-06T02:22:33;23.00;41.40
46784;DHT22;32544;52.832;13.816;2023-04-06T02:23:33;23.00;41.30
46784;DHT22;32544;52.832;13.816;2023-04-06T02:24:34;23.00;41.40
46784;DHT22;32544;52.832;13.816;2023-04-06T02:25:35;23.00;41.40
46784;DHT22;32544;52.832;13.816;2023-04-06T02:26:36;23.00;41.40
46784;DHT22;32544;52.832;13.816;2023-04-06T02:27:37;23.00;41.40
46784;DHT22;32544;52.832;13.816;2023-04-06T02:28:38;23.00;41.40
46784;DHT22;32544;52.832;13.816;2023-04-06T02:29:38;23.00;41.30
46784;DHT22;32544;52.832;13.816;2023-04-06T02:30:39;23.00;41.40
46784;DHT22;32544;52.832;13.816;2023-04-06T02:31:40;23.00;41.40
46784;DHT22;32544;52.832;13.816;2023-04-06T02:32:42;23.00;41.40
46784;DHT22;32544;52.832;13.816;2023-04-06T02:33:43;23.00;41.40
46784;DHT22;32544;52.832;13.816;2023-04-06T02:34:45;23.00;41.40
46784;DHT22;32544;52.832;13.816;2023-04-06T02:35:46;23.00;41.40
46784;DHT22;32544;52.832;13.816;2023-04-06T02:36:47;23.00;41.40
46784;DHT22;32544;52.832;13.816;2023-04-06T02:37:48;23.00;41.40
46784;DHT22;32544;52.832;13.816;2023-04-06T02:38:48;23.00;42.10
46784;DHT22;32544;52.832;13.816;2023-04-06T02:39:49;23.00;41.40
46784;DHT22;32544;52.832;13.816;2023-04-06T02:40:50;23.00;41.50
46784;DHT22;32544;52.832;13.816;2023-04-06T02:41:57;23.10;41.40
46784;DHT22;32544;52.832;13.816;2023-04-06T02:42:59;23.00;41.40
46784;DHT22;32544;52.832;13.816;2023-04-06T02:44:08;23.00;41.40
46784;DHT22;32544;52.832;13.816;2023-04-06T02:45:15;23.00;41.40
46784;DHT22;32544;52.832;13.816;2023-04-06T02:46:20;23.00;41.40
46784;DHT22;32544;52.832;13.816;2023-04-06T02:47:21;23.10;41.40
46784;DHT22;32544;52.832;13.816;2023-04-06T02:48:24;23.00;41.40
46784;DHT22;32544;52.832;13.816;2023-04-06T02:49:24;23.10;41.50
46784;DHT22;32544;52.832;13.816;2023-04-06T02:50:29;23.10;41.50
46784;DHT22;32544;52.832;13.816;2023-04-06T02:51:34;23.00;41.40
46784;DHT22;32544;52.832;13.816;2023-04-06T02:52:55;23.10;41.40
46784;DHT22;32544;52.832;13.816;2023-04-06T02:53:58;23.10;41.50
46784;DHT22;32544;52.832;13.816;2023-04-06T02:54:58;23.10;41.50
46784;DHT22;32544;52.832;13.816;2023-04-06T02:56:02;23.10;41.40
46784;DHT22;32544;52.832;13.816;2023-04-06T02:57:12;23.10;41.50
46784;DHT22;32544;52.832;13.816;2023-04-06T02:58:17;23.10;41.50
46784;DHT22;32544;52.832;13.816;2023-04-06T02:59:22;23.00;41.40
46784;DHT22;32544;52.832;13.816;2023-04-06T03:00:36;23.10;41.50
46784;DHT22;32544;52.832;13.816;2023-04-06T03:01:37;23.10;41.50
46784;DHT22;32544;52.832;13.816;2023-04-06T03:02:39;23.10;41.50
46784;DHT22;32544;52.832;13.816;2023-04-06T03:03:44;23.10;41.50
46784;DHT22;32544;52.832;13.816;2023-04-06T03:04:52;23.10;41.50
46784;DHT22;32544;52.832;13.816;2023-04-06T03:06:01;23.10;41.50
46784;DHT22;32544;52.832;13.816;2023-04-06T03:07:04;23.10;41.50
46784;DHT22;32544;52.832;13.816;2023-04-06T03:08:11;23.10;41.50
46784;DHT22;32544;52.832;13.816;2023-04-06T03:09:16;23.10;41.60
46784;DHT22;32544;52.832;13.816;2023-04-06T03:10:18;23.00;41.40
46784;DHT22;32544;52.832;13.816;2023-04-06T03:11:20;23.10;41.50
46784;DHT22;32544;52.832;13.816;2023-04-06T03:12:23;23.10;41.50
46784;DHT22;32544;52.832;13.816;2023-04-06T03:13:43;23.00;41.50
46784;DHT22;32544;52.832;13.816;2023-04-06T03:14:44;23.00;41.50
46784;DHT22;32544;52.832;13.816;2023-04-06T03:15:45;23.00;41.50
46784;DHT22;32544;52.832;13.816;2023-04-06T03:16:49;23.00;41.50
46784;DHT22;32544;52.832;13.816;2023-04-06T03:17:54;23.00;41.50
46784;DHT22;32544;52.832;13.816;2023-04-06T03:19:12;23.00;41.50
46784;DHT22;32544;52.832;13.816;2023-04-06T03:20:13;23.00;40.90
46784;DHT22;32544;52.832;13.816;2023-04-06T03:21:13;23.00;41.50
46784;DHT22;32544;52.832;13.816;2023-04-06T03:22:22;23.00;41.50
46784;DHT22;32544;52.832;13.816;2023-04-06T03:23:22;23.00;41.50
46784;DHT22;32544;52.832;13.816;2023-04-06T03:24:27;23.00;41.50
46784;DHT22;32544;52.832;13.816;2023-04-06T03:25:28;23.00;41.50
46784;DHT22;32544;52.832;13.816;2023-04-06T03:26:34;23.00;41.50
46784;DHT22;32544;52.832;13.816;2023-04-06T03:27:39;23.00;41.50
46784;DHT22;32544;52.832;13.816;2023-04-06T03:28:41;23.10;41.60
46784;DHT22;32544;52.832;13.816;2023-04-06T03:29:42;23.00;41.50
46784;DHT22;32544;52.832;13.816;2023-04-06T03:30:46;23.00;41.50
46784;DHT22;32544;52.832;13.816;2023-04-06T03:31:49;23.00;41.50
46784;DHT22;32544;52.832;13.816;2023-04-06T03:32:58;23.00;41.60
46784;DHT22;32544;52.832;13.816;2023-04-06T03:34:04;23.00;41.60
46784;DHT22;32544;52.832;13.816;2023-04-06T03:35:07;23.00;41.60
46784;DHT22;32544;52.832;13.816;2023-04-06T03:36:07;23.00;41.60
46784;DHT22;32544;52.832;13.816;2023-04-06T03:37:12;23.00;41.50
46784;DHT22;32544;52.832;13.816;2023-04-06T03:38:20;23.00;41.60
46784;DHT22;32544;52.832;13.816;2023-04-06T03:39:20;23.00;41.50
46784;DHT22;32544;52.832;13.816;2023-04-06T03:40:21;23.00;41.50
46784;DHT22;32544;52.832;13.816;2023-04-06T03:41:22;23.00;41.60
46784;DHT22;32544;52.832;13.816;2023-04-06T03:42:49;23.00;41.60
46784;DHT22;32544;52.832;13.816;2023-04-06T03:43:50;23.00;41.50
46784;DHT22;32544;52.832;13.816;2023-04-06T03:44:52;23.00;41.60
46784;DHT22;32544;52.832;13.816;2023-04-06T03:45:52;23.00;41.60
46784;DHT22;32544;52.832;13.816;2023-04-06T03:46:53;23.00;41.60
46784;DHT22;32544;52.832;13.816;2023-04-06T03:47:55;23.00;41.60
46784;DHT22;32544;52.832;13.816;2023-04-06T03:48:56;23.00;41.60
46784;DHT22;32544;52.832;13.816;2023-04-06T03:49:58;23.00;41.70
46784;DHT22;32544;52.832;13.816;2023-04-06T03:50:58;23.00;41.60
46784;DHT22;32544;52.832;13.816;2023-04-06T03:52:01;23.00;41.60
46784;DHT22;32544;52.832;13.816;2023-04-06T03:53:03;23.00;41.70
46784;DHT22;32544;52.832;13.816;2023-04-06T03:54:03;23.00;41.60
46784;DHT22;32544;52.832;13.816;2023-04-06T03:55:04;23.00;41.70
46784;DHT22;32544;52.832;13.816;2023-04-06T03:56:05;23.00;41.70
46784;DHT22;32544;52.832;13.816;2023-04-06T03:57:06;23.00;41.70
46784;DHT22;32544;52.832;13.816;2023-04-06T03:58:06;23.00;41.70
46784;DHT22;32544;52.832;13.816;2023-04-06T03:59:07;23.00;41.60
46784;DHT22;32544;52.832;13.816;2023-04-06T04:00:08;23.00;41.70
46784;DHT22;32544;52.832;13.816;2023-04-06T04:01:16;23.00;41.70
46784;DHT22;32544;52.832;13.816;2023-04-06T04:02:16;23.00;41.80
46784;DHT22;32544;52.832;13.816;2023-04-06T04:03:17;23.00;41.80
46784;DHT22;32544;52.832;13.816;2023-04-06T04:04:18;23.00;41.80
46784;DHT22;32544;52.832;13.816;2023-04-06T04:05:18;23.00;41.80
46784;DHT22;32544;52.832;13.816;2023-04-06T04:06:19;23.00;41.70
46784;DHT22;32544;52.832;13.816;2023-04-06T04:07:20;22.90;41.70
46784;DHT22;32544;52.832;13.816;2023-04-06T04:08:20;22.90;41.70
46784;DHT22;32544;52.832;13.816;2023-04-06T04:09:21;23.00;41.80
46784;DHT22;32544;52.832;13.816;2023-04-06T04:10:22;22.90;41.70
46784;DHT22;32544;52.832;13.816;2023-04-06T04:11:22;22.90;41.80
46784;DHT22;32544;52.832;13.816;2023-04-06T04:12:29;22.90;41.70
46784;DHT22;32544;52.832;13.816;2023-04-06T04:13:32;22.90;41.80
46784;DHT22;32544;52.832;13.816;2023-04-06T04:14:34;22.90;41.80
46784;DHT22;32544;52.832;13.816;2023-04-06T04:15:35;22.90;41.80
46784;DHT22;32544;52.832;13.816;2023-04-06T04:16:36;22.90;41.90
46784;DHT22;32544;52.832;13.816;2023-04-06T04:17:37;22.90;41.80
46784;DHT22;32544;52.832;13.816;2023-04-06T04:18:37;22.90;41.80
46784;DHT22;32544;52.832;13.816;2023-04-06T04:19:38;22.90;41.80
46784;DHT22;32544;52.832;13.816;2023-04-06T04:20:38;22.90;41.90
46784;DHT22;32544;52.832;13.816;2023-04-06T04:21:46;22.90;41.90
46784;DHT22;32544;52.832;13.816;2023-04-06T04:22:50;22.90;41.90
46784;DHT22;32544;52.832;13.816;2023-04-06T04:23:51;22.90;42.00
46784;DHT22;32544;52.832;13.816;2023-04-06T04:24:53;22.90;41.90
46784;DHT22;32544;52.832;13.816;2023-04-06T04:25:53;22.90;42.00
46784;DHT22;32544;52.832;13.816;2023-04-06T04:26:54;22.90;41.90
46784;DHT22;32544;52.832;13.816;2023-04-06T04:27:56;22.90;41.90
46784;DHT22;32544;52.832;13.816;2023-04-06T04:28:57;22.90;41.90
46784;DHT22;32544;52.832;13.816;2023-04-06T04:29:58;22.90;41.90
46784;DHT22;32544;52.832;13.816;2023-04-06T04:30:59;22.90;41.90
46784;DHT22;32544;52.832;13.816;2023-04-06T04:31:59;22.90;42.00
46784;DHT22;32544;52.832;13.816;2023-04-06T04:33:00;22.90;42.00
46784;DHT22;32544;52.832;13.816;2023-04-06T04:34:01;22.90;42.00
46784;DHT22;32544;52.832;13.816;2023-04-06T04:35:05;22.90;42.00
46784;DHT22;32544;52.832;13.816;2023-04-06T04:36:11;22.90;41.90
46784;DHT22;32544;52.832;13.816;2023-04-06T04:37:16;22.90;42.00
46784;DHT22;32544;52.832;13.816;2023-04-06T04:38:25;22.90;42.00
46784;DHT22;32544;52.832;13.816;2023-04-06T04:39:29;22.90;42.00
46784;DHT22;32544;52.832;13.816;2023-04-06T04:40:36;22.90;42.00
46784;DHT22;32544;52.832;13.816;2023-04-06T04:41:41;22.90;42.00
46784;DHT22;32544;52.832;13.816;2023-04-06T04:42:44;22.90;42.00
46784;DHT22;32544;52.832;13.816;2023-04-06T04:43:51;22.90;42.00
46784;DHT22;32544;52.832;13.816;2023-04-06T04:44:56;22.90;41.90
46784;DHT22;32544;52.832;13.816;2023-04-06T04:46:08;22.90;42.00
46784;DHT22;32544;52.832;13.816;2023-04-06T04:47:14;22.90;41.90
46784;DHT22;32544;52.832;13.816;2023-04-06T04:48:19;22.90;41.90
46784;DHT22;32544;52.832;13.816;2023-04-06T04:49:33;22.90;41.80
46784;DHT22;32544;52.832;13.816;2023-04-06T04:50:34;22.90;41.80
46784;DHT22;32544;52.832;13.816;2023-04-06T04:51:34;22.90;41.80
46784;DHT22;32544;52.832;13.816;2023-04-06T04:52:46;22.90;41.80
46784;DHT22;32544;52.832;13.816;2023-04-06T04:54:04;22.90;41.80
46784;DHT22;32544;52.832;13.816;2023-04-06T04:55:06;22.90;41.70
46784;DHT22;32544;52.832;13.816;2023-04-06T04:56:07;22.90;41.80
46784;DHT22;32544;52.832;13.816;2023-04-06T04:57:08;23.00;41.80
46784;DHT22;32544;52.832;13.816;2023-04-06T04:58:17;22.90;41.80
46784;DHT22;32544;52.832;13.816;2023-04-06T04:59:25;23.00;41.80
46784;DHT22;32544;52.832;13.816;2023-04-06T05:00:38;22.90;41.80
46784;DHT22;32544;52.832;13.816;2023-04-06T05:01:39;23.00;41.80
46784;DHT22;32544;52.832;13.816;2023-04-06T05:02:40;23.00;41.80
46784;DHT22;32544;52.832;13.816;2023-04-06T05:03:48;23.00;41.80
46784;DHT22;32544;52.832;13.816;2023-04-06T05:04:50;23.00;41.80
46784;DHT22;32544;52.832;13.816;2023-04-06T05:05:55;23.00;41.80
46784;DHT22;32544;52.832;13.816;2023-04-06T05:07:07;23.00;41.80
46784;DHT22;32544;52.832;13.816;2023-04-06T05:08:10;23.00;41.80
46784;DHT22;32544;52.832;13.816;2023-04-06T05:09:17;23.00;41.80
46784;DHT22;32544;52.832;13.816;2023-04-06T05:10:18;23.00;41.80
46784;DHT22;32544;52.832;13.816;2023-04-06T05:11:27;23.00;41.80
46784;DHT22;32544;52.832;13.816;2023-04-06T05:12:33;23.00;41.80
46784;DHT22;32544;52.832;13.816;2023-04-06T05:13:41;23.00;41.80
46784;DHT22;32544;52.832;13.816;2023-04-06T05:14:47;23.00;41.80
46784;DHT22;32544;52.832;13.816;2023-04-06T05:15:51;23.00;41.80
46784;DHT22;32544;52.832;13.816;2023-04-06T05:16:59;23.00;41.80
46784;DHT22;32544;52.832;13.816;2023-04-06T05:18:00;23.00;41.80
46784;DHT22;32544;52.832;13.816;2023-04-06T05:19:06;23.00;41.80
46784;DHT22;32544;52.832;13.816;2023-04-06T05:20:13;23.00;41.80
46784;DHT22;32544;52.832;13.816;2023-04-06T05:21:21;23.00;41.80
46784;DHT22;32544;52.832;13.816;2023-04-06T05:22:38;23.00;41.80
46784;DHT22;32544;52.832;13.816;2023-04-06T05:23:42;23.00;41.80
46784;DHT22;32544;52.832;13.816;2023-04-06T05:24:43;23.00;41.80
46784;DHT22;32544;52.832;13.816;2023-04-06T05:25:44;23.00;41.80
46784;DHT22;32544;52.832;13.816;2023-04-06T05:26:52;23.00;41.80
46784;DHT22;32544;52.832;13.816;2023-04-06T05:27:57;23.00;41.80
46784;DHT22;32544;52.832;13.816;2023-04-06T05:29:04;23.00;41.80
46784;DHT22;32544;52.832;13.816;2023-04-06T05:30:09;23.00;41.80
46784;DHT22;32544;52.832;13.816;2023-04-06T05:31:15;23.00;41.80
46784;DHT22;32544;52.832;13.816;2023-04-06T05:32:21;23.00;41.80
46784;DHT22;32544;52.832;13.816;2023-04-06T05:33:24;23.00;41.80
46784;DHT22;32544;52.832;13.816;2023-04-06T05:34:59;23.00;41.80
46784;DHT22;32544;52.832;13.816;2023-04-06T05:36:00;23.00;41.80
46784;DHT22;32544;52.832;13.816;2023-04-06T05:37:01;23.00;41.80
46784;DHT22;32544;52.832;13.816;2023-04-06T05:38:02;23.00;41.80
46784;DHT22;32544;52.832;13.816;2023-04-06T05:39:03;23.00;41.80
46784;DHT22;32544;52.832;13.816;2023-04-06T05:40:14;23.00;41.80
46784;DHT22;32544;52.832;13.816;2023-04-06T05:41:15;23.00;41.80
46784;DHT22;32544;52.832;13.816;2023-04-06T05:42:16;23.00;41.80
46784;DHT22;32544;52.832;13.816;2023-04-06T05:43:31;23.00;41.80
46784;DHT22;32544;52.832;13.816;2023-04-06T05:44:33;23.00;41.80
46784;DHT22;32544;52.832;13.816;2023-04-06T05:45:44;23.00;41.80
46784;DHT22;32544;52.832;13.816;2023-04-06T05:46:45;23.00;41.80
46784;DHT22;32544;52.832;13.816;2023-04-06T05:47:48;23.00;41.80
46784;DHT22;32544;52.832;13.816;2023-04-06T05:48:59;23.00;41.70
46784;DHT22;32544;52.832;13.816;2023-04-06T05:50:03;23.00;41.70
46784;DHT22;32544;52.832;13.816;2023-04-06T05:51:10;23.00;41.70
46784;DHT22;32544;52.832;13.816;2023-04-06T05:52:20;23.00;41.70
46784;DHT22;32544;52.832;13.816;2023-04-06T05:53:23;23.00;41.70
46784;DHT22;32544;52.832;13.816;2023-04-06T05:54:29;23.00;41.80
46784;DHT22;32544;52.832;13.816;2023-04-06T05:55:34;23.00;41.60
46784;DHT22;32544;52.832;13.816;2023-04-06T05:56:48;23.00;41.50
46784;DHT22;32544;52.832;13.816;2023-04-06T05:57:49;23.00;41.40
46784;DHT22;32544;52.832;13.816;2023-04-06T05:58:52;23.00;41.40
46784;DHT22;32544;52.832;13.816;2023-04-06T05:59:58;22.90;41.10
46784;DHT22;32544;52.832;13.816;2023-04-06T06:01:12;22.90;41.10
46784;DHT22;32544;52.832;13.816;2023-04-06T06:02:16;22.90;41.00
46784;DHT22;32544;52.832;13.816;2023-04-06T06:03:21;22.90;41.00
46784;DHT22;32544;52.832;13.816;2023-04-06T06:04:26;22.90;40.90
46784;DHT22;32544;52.832;13.816;2023-04-06T06:05:28;22.90;40.80
46784;DHT22;32544;52.832;13.816;2023-04-06T06:06:32;22.90;40.80
46784;DHT22;32544;52.832;13.816;2023-04-06T06:07:47;22.90;40.80
46784;DHT22;32544;52.832;13.816;2023-04-06T06:08:48;22.90;40.70
46784;DHT22;32544;52.832;13.816;2023-04-06T06:09:51;22.90;40.70
46784;DHT22;32544;52.832;13.816;2023-04-06T06:10:59;22.90;40.70
46784;DHT22;32544;52.832;13.816;2023-04-06T06:12:00;22.90;40.60
46784;DHT22;32544;52.832;13.816;2023-04-06T06:13:03;22.90;40.50
46784;DHT22;32544;52.832;13.816;2023-04-06T06:14:03;22.90;40.50
46784;DHT22;32544;52.832;13.816;2023-04-06T06:15:08;22.80;40.40
46784;DHT22;32544;52.832;13.816;2023-04-06T06:16:12;22.90;40.40
46784;DHT22;32544;52.832;13.816;2023-04-06T06:17:18;22.80;40.30
46784;DHT22;32544;52.832;13.816;2023-04-06T06:18:21;22.80;40.30
46784;DHT22;32544;52.832;13.816;2023-04-06T06:19:24;22.80;40.40
46784;DHT22;32544;52.832;13.816;2023-04-06T06:20:28;22.80;40.30
46784;DHT22;32544;52.832;13.816;2023-04-06T06:21:30;22.80;40.20
46784;DHT22;32544;52.832;13.816;2023-04-06T06:22:31;22.80;40.20
46784;DHT22;32544;52.832;13.816;2023-04-06T06:23:32;22.80;40.20
46784;DHT22;32544;52.832;13.816;2023-04-06T06:24:33;22.80;40.10
46784;DHT22;32544;52.832;13.816;2023-04-06T06:25:34;22.80;40.10
46784;DHT22;32544;52.832;13.816;2023-04-06T06:26:36;22.80;40.00
46784;DHT22;32544;52.832;13.816;2023-04-06T06:27:38;22.80;39.90
46784;DHT22;32544;52.832;13.816;2023-04-06T06:28:39;22.80;39.90
46784;DHT22;32544;52.832;13.816;2023-04-06T06:29:40;22.90;40.30
46784;DHT22;32544;52.832;13.816;2023-04-06T06:30:41;22.80;40.00
46784;DHT22;32544;52.832;13.816;2023-04-06T06:31:42;22.80;40.00
46784;DHT22;32544;52.832;13.816;2023-04-06T06:32:42;22.80;40.00
46784;DHT22;32544;52.832;13.816;2023-04-06T06:33:43;22.90;40.10
46784;DHT22;32544;52.832;13.816;2023-04-06T06:34:44;22.90;40.00
46784;DHT22;32544;52.832;13.816;2023-04-06T06:35:44;22.90;40.10
46784;DHT22;32544;52.832;13.816;2023-04-06T06:36:45;22.90;40.10
46784;DHT22;32544;52.832;13.816;2023-04-06T06:37:47;22.90;40.10